Time;durP1;ratioP1;P1;durP2;ratioP2;P2;SDS_P1;SDS_P2;PMS_P1;PMS_P2;Temp;Humidity;BMP_temperature;BMP_pressure;BME280_temperature;BME280_humidity;BME280_pressure;Samples;Min_cycle;Max_cycle;Signal;HPM_P1;HPM_P2
2022/12/22 03:26:32;;;;;;;33.70;4.55;;;14.70;84.10;;;;;;7378241;19;20130;-86
2022/12/22 03:29:01;;;;;;;36.35;5.88;;;14.60;84.50;;;;;;7377120;19;20359;-86
2022/12/22 03:31:32;;;;;;;24.90;4.20;;;14.60;84.80;;;;;;7376830;19;20117;-86
2022/12/22 03:34:01;;;;;;;24.20;4.00;;;14.70;84.70;;;;;;7398332;19;20022;-86
2022/12/22 03:36:30;;;;;;;34.92;3.67;;;14.70;84.40;;;;;;7380104;19;20093;-86
2022/12/22 03:38:58;;;;;;;29.42;4.50;;;14.80;83.80;;;;;;7384665;19;20015;-87
2022/12/22 03:46:52;;;;;;;30.35;4.55;;;14.50;83.70;;;;;;7387841;19;20006;-87
2022/12/22 03:49:21;;;;;;;35.70;3.72;;;14.60;83.80;;;;;;7391737;19;20035;-87
2022/12/22 03:51:52;;;;;;;24.58;4.05;;;14.60;83.90;;;;;;7408495;19;20031;-88
2022/12/22 03:54:22;;;;;;;27.73;3.42;;;14.60;83.60;;;;;;7389359;19;20089;-87
2022/12/22 03:56:52;;;;;;;26.90;4.28;;;14.30;83.80;;;;;;7385545;19;20014;-87
2022/12/22 03:59:21;;;;;;;28.20;4.10;;;14.20;84.30;;;;;;7383573;19;20473;-87
2022/12/22 04:01:55;;;;;;;29.13;3.80;;;14.40;83.80;;;;;;7382242;19;20017;-86
2022/12/22 04:04:25;;;;;;;30.58;4.43;;;14.50;83.70;;;;;;7381769;19;20287;-87
2022/12/22 04:06:55;;;;;;;26.45;3.92;;;14.20;84.20;;;;;;7399502;19;20048;-86
2022/12/22 04:09:25;;;;;;;21.52;3.65;;;14.20;84.30;;;;;;7380017;19;20035;-87
2022/12/22 04:14:35;;;;;;;27.95;4.07;;;14.20;83.70;;;;;;7410607;19;20017;-87
2022/12/22 04:17:08;;;;;;;25.20;3.40;;;14.00;84.80;;;;;;7403494;19;20022;-87
2022/12/22 04:19:37;;;;;;;25.75;3.90;;;14.00;85.50;;;;;;7390176;19;20035;-86
2022/12/22 04:22:06;;;;;;;22.83;3.10;;;13.90;86.00;;;;;;7409983;19;20036;-86
2022/12/22 04:24:34;;;;;;;25.83;3.35;;;14.20;85.90;;;;;;7381709;19;20026;-85
2022/12/22 04:27:03;;;;;;;17.88;3.20;;;14.00;86.90;;;;;;7384958;19;20471;-84
2022/12/22 04:29:32;;;;;;;24.10;3.63;;;14.10;86.00;;;;;;7372286;19;20032;-83
2022/12/22 04:32:00;;;;;;;22.38;3.05;;;14.10;85.20;;;;;;7372980;19;20504;-84
2022/12/22 04:34:32;;;;;;;27.88;3.38;;;14.10;85.40;;;;;;7374506;19;20110;-83
2022/12/22 04:37:00;;;;;;;18.90;2.53;;;14.00;85.50;;;;;;7397415;19;20017;-82
2022/12/22 04:39:29;;;;;;;22.73;3.47;;;14.30;84.80;;;;;;7379666;19;20022;-83
2022/12/22 04:41:58;;;;;;;22.83;2.80;;;14.30;84.60;;;;;;7375007;19;20564;-83
2022/12/22 04:44:26;;;;;;;15.98;2.33;;;14.40;84.30;;;;;;7371847;19;20074;-82
2022/12/22 04:46:55;;;;;;;22.92;3.30;;;14.40;84.30;;;;;;7372250;19;20074;-83
2022/12/22 04:49:24;;;;;;;17.73;2.72;;;14.30;84.90;;;;;;7370917;19;20022;-82
2022/12/22 04:51:56;;;;;;;21.08;2.65;;;14.30;85.20;;;;;;7395107;19;20020;-83
2022/12/22 04:54:25;;;;;;;16.77;2.55;;;14.20;84.60;;;;;;7374704;19;20346;-83
2022/12/22 04:56:54;;;;;;;19.10;2.35;;;14.20;84.80;;;;;;7377524;19;20022;-82
2022/12/22 04:59:23;;;;;;;21.02;2.55;;;14.40;84.70;;;;;;7375238;19;20090;-82
2022/12/22 05:01:52;;;;;;;16.38;2.53;;;14.40;83.80;;;;;;7373766;19;20014;-82
2022/12/22 05:04:20;;;;;;;19.70;3.13;;;14.40;84.00;;;;;;7372373;19;20019;-83
2022/12/22 05:06:49;;;;;;;20.15;2.45;;;14.30;84.00;;;;;;7394521;19;20054;-83
2022/12/22 05:09:20;;;;;;;19.88;2.40;;;14.10;84.20;;;;;;7372120;19;20118;-83
2022/12/22 05:11:49;;;;;;;18.85;1.98;;;14.30;83.90;;;;;;7375894;19;20059;-82
2022/12/22 05:14:18;;;;;;;12.07;2.25;;;14.40;83.40;;;;;;7385780;19;20027;-84
2022/12/22 05:16:46;;;;;;;15.13;1.90;;;14.40;83.10;;;;;;7390120;19;20022;-84
2022/12/22 05:19:15;;;;;;;16.88;2.10;;;14.20;83.30;;;;;;7381769;19;20031;-83
2022/12/22 05:21:44;;;;;;;9.95;1.90;;;14.10;84.10;;;;;;7396554;19;20110;-84
2022/12/22 05:24:13;;;;;;;15.65;2.03;;;14.40;83.60;;;;;;7377314;19;20041;-84
2022/12/22 05:26:44;;;;;;;8.63;1.60;;;14.40;83.30;;;;;;7378055;19;20016;-83
2022/12/22 05:29:13;;;;;;;10.18;1.83;;;14.30;84.40;;;;;;7377227;19;20019;-83
2022/12/22 05:31:41;;;;;;;8.10;1.42;;;14.40;83.80;;;;;;7378766;19;20037;-84
2022/12/22 05:34:10;;;;;;;13.18;1.58;;;14.50;83.70;;;;;;7400637;19;20085;-83
2022/12/22 05:36:39;;;;;;;4.05;0.90;;;14.50;84.00;;;;;;7376715;19;20059;-83
2022/12/22 05:39:07;;;;;;;7.32;0.95;;;14.70;84.40;;;;;;7380684;19;20018;-82
2022/12/22 05:41:36;;;;;;;6.68;1.20;;;14.60;85.00;;;;;;7392364;19;20019;-82
2022/12/22 05:44:08;;;;;;;2.60;0.60;;;14.20;86.30;;;;;;7385057;19;20054;-82
2022/12/22 05:46:36;;;;;;;;;;;13.80;88.40;;;;;;7378243;19;20097;-81
2022/12/22 05:49:05;;;;;;;3.70;0.90;;;13.80;89.10;;;;;;7397628;19;20018;-81
2022/12/22 05:51:33;;;;;;;11.25;1.05;;;13.80;89.30;;;;;;7379016;19;20101;-81
2022/12/22 05:54:02;;;;;;;7.70;1.17;;;13.90;88.60;;;;;;7379525;19;20588;-82
2022/12/22 05:56:34;;;;;;;5.53;0.75;;;14.10;88.50;;;;;;7384319;19;20445;-82
2022/12/22 05:59:02;;;;;;;8.88;1.40;;;14.20;88.80;;;;;;7383605;19;20078;-82
2022/12/22 06:01:34;;;;;;;1999.90;80.82;;;14.30;88.90;;;;;;7382667;19;20078;-83
2022/12/22 06:04:02;;;;;;;13.82;2.05;;;14.40;88.80;;;;;;7401300;19;20019;-83
2022/12/22 06:06:31;;;;;;;25.67;2.80;;;14.40;88.20;;;;;;7378797;19;20523;-82
2022/12/22 06:09:00;;;;;;;18.95;2.92;;;14.50;88.00;;;;;;7378451;19;20058;-82
2022/12/22 06:11:29;;;;;;;32.05;3.88;;;14.60;88.00;;;;;;7383923;19;20019;-82
2022/12/22 06:13:57;;;;;;;38.10;4.20;;;14.60;87.80;;;;;;7381973;19;20014;-83
2022/12/22 06:16:26;;;;;;;52.33;5.63;;;14.60;87.70;;;;;;7383817;19;20328;-82
2022/12/22 06:18:57;;;;;;;48.85;5.50;;;14.40;87.50;;;;;;7402462;19;20025;-82
2022/12/22 06:21:26;;;;;;;51.30;5.50;;;14.50;87.80;;;;;;7378520;19;20090;-83
2022/12/22 06:23:55;;;;;;;50.22;5.72;;;14.50;87.40;;;;;;7377765;19;20018;-83
2022/12/22 06:26:23;;;;;;;58.05;6.20;;;14.30;87.10;;;;;;7376854;19;20014;-83
2022/12/22 06:28:52;;;;;;;51.17;6.30;;;14.20;87.80;;;;;;7380338;19;20107;-82
2022/12/22 06:31:21;;;;;;;47.80;6.22;;;14.10;87.90;;;;;;7385904;19;20039;-82
2022/12/22 06:33:49;;;;;;;54.85;5.88;;;13.80;88.80;;;;;;7400004;19;20082;-84
2022/12/22 06:36:21;;;;;;;51.25;6.72;;;14.00;88.80;;;;;;7377082;19;20101;-82
2022/12/22 06:38:49;;;;;;;70.55;6.50;;;14.00;89.00;;;;;;7375558;19;20081;-82
2022/12/22 06:43:07;;;;;;;48.38;6.18;;;14.20;88.70;;;;;;7377047;19;20019;-83
2022/12/22 06:44:05;;;;;;;63.63;7.20;;;14.20;88.60;;;;;;7376040;19;20472;-82
2022/12/22 06:46:34;;;;;;;56.40;5.95;;;14.40;88.40;;;;;;7376083;19;20036;-82
2022/12/22 06:49:03;;;;;;;56.97;6.82;;;14.50;88.10;;;;;;7398562;19;20021;-83
2022/12/22 06:51:34;;;;;;;58.78;6.72;;;14.50;87.70;;;;;;7376975;19;20018;-83
2022/12/22 06:54:03;;;;;;;65.70;6.93;;;14.50;87.70;;;;;;7382294;19;20018;-84
2022/12/22 06:56:32;;;;;;;73.63;7.00;;;14.60;87.50;;;;;;7385975;19;20014;-83
2022/12/22 06:59:00;;;;;;;70.10;6.63;;;14.70;87.40;;;;;;7383395;19;20058;-84
2022/12/22 07:01:29;;;;;;;65.88;6.72;;;14.60;87.20;;;;;;7377449;19;20086;-82
2022/12/22 07:03:58;;;;;;;56.33;6.75;;;14.60;87.20;;;;;;7398786;19;20029;-82
2022/12/22 07:06:26;;;;;;;52.45;6.55;;;14.60;87.30;;;;;;7384202;19;20556;-83
2022/12/22 07:08:58;;;;;;;64.13;7.55;;;14.70;87.20;;;;;;7395614;19;20027;-82
2022/12/22 07:11:26;;;;;;;57.80;6.05;;;14.70;87.20;;;;;;7390899;19;20022;-83
2022/12/22 07:13:55;;;;;;;63.67;7.78;;;14.80;87.30;;;;;;7378522;19;20039;-83
2022/12/22 07:16:24;;;;;;;66.32;7.85;;;14.90;87.30;;;;;;7380110;19;20019;-82
2022/12/22 07:18:52;;;;;;;78.47;9.18;;;14.90;86.90;;;;;;7395514;19;20010;-83
2022/12/22 07:21:21;;;;;;;87.25;9.38;;;14.90;86.30;;;;;;7377124;19;20019;-83
2022/12/22 07:23:50;;;;;;;61.17;7.88;;;14.90;86.20;;;;;;7377562;19;20021;-84
2022/12/22 07:26:21;;;;;;;75.22;8.68;;;14.80;85.60;;;;;;7376289;19;20383;-84
2022/12/22 07:28:50;;;;;;;72.57;8.00;;;14.80;85.80;;;;;;7375680;19;20014;-82
2022/12/22 07:31:20;;;;;;;60.65;6.90;;;14.60;85.30;;;;;;7372025;19;20032;-83
2022/12/22 07:33:48;;;;;;;69.57;7.53;;;14.40;85.50;;;;;;7394970;19;20413;-84
2022/12/22 07:36:18;;;;;;;82.85;9.07;;;14.50;86.00;;;;;;7376379;19;20069;-82
2022/12/22 07:38:49;;;;;;;84.45;9.32;;;14.60;86.20;;;;;;7374874;19;20074;-83
2022/12/22 07:44:03;;;;;;;82.32;9.43;;;14.60;85.80;;;;;;7386241;19;20021;-83
2022/12/22 07:46:35;;;;;;;80.05;9.63;;;14.50;85.60;;;;;;7384742;19;20120;-86
2022/12/22 07:51:45;;;;;;;;;;;14.60;85.90;;;;;;7386187;19;20028;-83
2022/12/22 07:54:18;;;;;;;81.32;9.38;;;14.80;86.10;;;;;;7387064;19;19912;-84
2022/12/22 07:56:49;;;;;;;78.78;8.95;;;14.80;85.60;;;;;;7403738;19;20010;-83
2022/12/22 07:59:18;;;;;;;94.03;9.45;;;14.80;85.60;;;;;;7409198;19;19995;-82
2022/12/22 08:01:47;;;;;;;76.93;8.82;;;14.80;85.40;;;;;;7409611;19;20033;-82
2022/12/22 08:04:16;;;;;;;88.68;10.07;;;14.70;85.00;;;;;;7407502;19;20029;-82
2022/12/22 08:06:45;;;;;;;82.30;9.27;;;14.80;85.20;;;;;;7429427;19;20013;-83
2022/12/22 08:09:20;;;;;;;75.65;9.70;;;14.80;85.30;;;;;;7397726;19;20031;-84
2022/12/22 08:11:51;;;;;;;81.00;9.70;;;14.80;84.90;;;;;;7389008;19;20014;-84
2022/12/22 08:14:20;;;;;;;86.40;8.65;;;14.80;85.00;;;;;;7390728;19;20025;-84
2022/12/22 08:16:49;;;;;;;69.13;8.20;;;14.80;84.70;;;;;;7383398;19;20023;-84
2022/12/22 08:19:17;;;;;;;73.60;9.75;;;14.80;84.70;;;;;;7377908;19;20046;-83
2022/12/22 08:21:49;;;;;;;81.50;9.60;;;14.80;84.70;;;;;;7399584;19;20015;-91
2022/12/22 08:24:17;;;;;;;84.25;9.77;;;14.80;84.10;;;;;;7383679;19;20022;-85
2022/12/22 08:26:52;;;;;;;72.65;9.95;;;14.80;84.60;;;;;;7383474;19;20093;-89
2022/12/22 08:29:24;;;;;;;67.63;8.75;;;14.70;83.70;;;;;;7389916;19;20016;-89
2022/12/22 08:31:53;;;;;;;70.03;9.25;;;14.70;84.50;;;;;;7388249;19;20022;-85
2022/12/22 08:34:22;;;;;;;70.28;9.02;;;14.80;84.40;;;;;;7390854;19;20019;-87
2022/12/22 08:36:54;;;;;;;88.20;10.57;;;14.80;84.30;;;;;;7423267;19;20469;-85
2022/12/22 08:39:25;;;;;;;72.20;9.18;;;14.80;84.30;;;;;;7383639;19;20018;-87
2022/12/22 08:41:56;;;;;;;71.63;9.18;;;14.90;85.00;;;;;;7394192;19;20030;-91
2022/12/22 08:44:27;;;;;;;88.43;9.82;;;15.00;85.00;;;;;;7390309;19;20022;-88
2022/12/22 08:46:58;;;;;;;84.82;9.10;;;14.90;83.60;;;;;;7380816;19;20049;-88
2022/12/22 08:49:27;;;;;;;80.80;9.77;;;14.90;83.70;;;;;;7400848;19;20010;-90
2022/12/22 08:51:56;;;;;;;88.90;13.57;;;14.90;84.00;;;;;;7424002;19;20006;-91
2022/12/22 08:54:26;;;;;;;83.63;13.32;;;14.90;83.80;;;;;;7367712;19;20026;-88
2022/12/22 08:56:59;;;;;;;82.30;11.70;;;14.70;83.60;;;;;;7336703;19;20087;-91
2022/12/22 09:02:05;;;;;;;72.68;9.30;;;14.80;83.60;;;;;;7324860;19;21283;-83
2022/12/22 09:07:09;;;;;;;81.93;9.43;;;14.90;83.40;;;;;;7430690;19;20754;-88
2022/12/22 09:09:38;;;;;;;91.00;10.63;;;14.90;83.40;;;;;;7331639;19;20167;-81
2022/12/22 09:12:11;;;;;;;79.57;9.50;;;15.00;83.80;;;;;;7411389;19;20051;-87
2022/12/22 09:14:40;;;;;;;80.07;9.38;;;15.00;83.20;;;;;;7382152;19;20103;-83
2022/12/22 09:19:44;;;;;;;88.10;9.25;;;15.00;83.20;;;;;;7406965;19;20022;-90
2022/12/22 09:22:13;;;;;;;82.10;9.52;;;15.00;83.40;;;;;;7414888;19;20018;-92
2022/12/22 09:27:19;;;;;;;91.20;10.25;;;15.10;83.60;;;;;;7331264;19;20281;-87
2022/12/22 09:29:48;;;;;;;86.85;9.88;;;15.10;83.40;;;;;;7402965;19;20030;-87
2022/12/22 09:34:54;;;;;;;68.95;9.60;;;15.10;82.70;;;;;;7386072;19;20449;-86
2022/12/22 09:37:23;;;;;;;80.00;10.27;;;15.20;82.70;;;;;;7387943;19;20015;-86
2022/12/22 09:39:51;;;;;;;74.95;9.13;;;15.20;82.70;;;;;;7401774;19;20333;-91
2022/12/22 09:42:23;;;;;;;79.32;10.45;;;15.20;82.70;;;;;;7403531;19;20032;-88
2022/12/22 09:44:53;;;;;;;75.50;9.85;;;15.20;82.50;;;;;;7398983;19;20014;-88
2022/12/22 09:47:34;;;;;;;84.10;10.25;;;15.10;83.30;;;;;;7406108;19;20062;-92
2022/12/22 09:52:48;;;;;;;77.55;10.45;;;15.30;82.90;;;;;;7394388;19;20018;-91
2022/12/22 09:55:31;;;;;;;97.18;11.02;;;15.00;82.60;;;;;;7396233;19;20046;-90
2022/12/22 09:58:03;;;;;;;79.28;10.40;;;15.10;82.70;;;;;;7427972;19;20007;-90
2022/12/22 10:00:32;;;;;;;85.38;12.35;;;15.20;82.50;;;;;;7398031;19;20025;-91
2022/12/22 10:03:12;;;;;;;90.72;13.52;;;15.30;82.50;;;;;;7407783;19;20015;-90
2022/12/22 10:05:47;;;;;;;71.65;11.18;;;15.40;82.20;;;;;;7411955;19;20018;-90
2022/12/22 10:08:20;;;;;;;93.25;11.45;;;15.30;81.50;;;;;;7400871;19;20011;-86
2022/12/22 10:10:54;;;;;;;80.47;11.52;;;15.30;81.50;;;;;;7400289;19;20425;-89
2022/12/22 10:13:26;;;;;;;83.10;10.68;;;15.30;81.70;;;;;;7354707;19;20014;-87
2022/12/22 10:15:55;;;;;;;72.35;10.27;;;15.30;81.90;;;;;;7435076;19;20013;-87
2022/12/22 10:18:26;;;;;;;77.88;10.77;;;15.30;81.70;;;;;;7399411;19;20039;-81
2022/12/22 10:21:10;;;;;;;113.78;24.83;;;15.30;81.70;;;;;;7387313;19;20026;-83
2022/12/22 10:23:41;;;;;;;76.60;10.88;;;15.30;81.80;;;;;;7390145;19;20021;-83
2022/12/22 10:26:14;;;;;;;74.65;9.73;;;15.40;81.30;;;;;;7381548;19;20019;-91
2022/12/22 10:28:48;;;;;;;83.28;9.77;;;15.30;81.10;;;;;;7383813;19;20098;-92
2022/12/22 10:31:20;;;;;;;85.35;11.10;;;15.20;81.30;;;;;;7379146;19;20113;-90
2022/12/22 10:33:51;;;;;;;83.95;10.68;;;15.30;81.40;;;;;;7402127;19;20027;-90
2022/12/22 10:36:25;;;;;;;86.25;8.82;;;15.30;81.60;;;;;;7383863;19;20098;-89
2022/12/22 10:39:01;;;;;;;67.28;8.43;;;15.30;81.10;;;;;;7375563;19;20019;-92
2022/12/22 10:41:32;;;;;;;81.32;10.07;;;15.20;81.90;;;;;;7369917;19;20017;-89
2022/12/22 10:44:08;;;;;;;79.53;9.60;;;15.30;81.70;;;;;;7385228;19;20024;-90
2022/12/22 10:46:40;;;;;;;64.20;8.80;;;15.30;81.30;;;;;;7399452;19;20019;-90
2022/12/22 10:49:19;;;;;;;73.25;9.52;;;15.40;81.20;;;;;;7408192;19;20006;-89
2022/12/22 10:51:52;;;;;;;78.93;9.23;;;15.40;81.40;;;;;;7383630;19;20047;-89
2022/12/22 10:54:29;;;;;;;70.18;8.80;;;15.50;81.10;;;;;;7385534;19;20090;-89
2022/12/22 10:57:22;;;;;;;82.63;9.93;;;15.50;80.90;;;;;;7381924;19;20117;-92
2022/12/22 10:59:55;;;;;;;73.90;9.88;;;15.60;80.50;;;;;;7385240;19;20070;-92
2022/12/22 11:02:36;;;;;;;82.30;9.77;;;15.70;80.40;;;;;;7384002;19;20439;-90
2022/12/22 11:05:08;;;;;;;83.27;11.87;;;15.50;80.50;;;;;;7387149;19;20450;-91
2022/12/22 11:07:39;;;;;;;77.90;11.88;;;15.50;80.90;;;;;;7385237;19;20240;-89
2022/12/22 11:13:01;;;;;;;86.50;12.07;;;15.70;80.80;;;;;;7362295;19;20111;-84
2022/12/22 11:15:38;;;;;;;79.45;10.00;;;15.70;80.60;;;;;;7375254;19;20035;-85
2022/12/22 11:18:32;;;;;;;72.28;9.57;;;15.80;80.40;;;;;;7376218;19;20035;-85
2022/12/22 11:21:05;;;;;;;65.43;9.25;;;15.80;81.00;;;;;;7375283;19;20098;-85
2022/12/22 11:23:40;;;;;;;83.53;10.85;;;15.90;80.20;;;;;;7375160;19;20101;-85
2022/12/22 11:26:17;;;;;;;75.05;11.35;;;15.80;79.80;;;;;;7376393;19;20040;-84
2022/12/22 11:28:59;;;;;;;65.47;9.13;;;15.70;80.00;;;;;;7383603;19;20453;-84
2022/12/22 11:31:38;;;;;;;;;;;15.70;80.30;;;;;;7398981;19;20039;-84
2022/12/22 11:34:22;;;;;;;72.28;11.45;;;15.90;80.20;;;;;;7414813;19;19921;-84
2022/12/22 11:37:09;;;;;;;74.72;9.15;;;15.80;79.70;;;;;;7376089;19;20306;-84
2022/12/22 11:39:44;;;;;;;80.25;9.18;;;15.80;79.70;;;;;;7372765;19;20035;-84
2022/12/22 11:42:32;;;;;;;78.68;9.82;;;15.60;79.90;;;;;;7373826;19;20018;-84
2022/12/22 11:45:13;;;;;;;81.22;9.93;;;15.60;80.40;;;;;;7371871;19;20021;-84
2022/12/22 11:47:55;;;;;;;85.07;10.18;;;15.60;80.30;;;;;;7375988;19;20047;-83
2022/12/22 11:50:35;;;;;;;73.72;9.75;;;15.70;80.10;;;;;;7376158;19;20074;-84
2022/12/22 11:53:25;;;;;;;73.82;9.98;;;15.70;80.00;;;;;;7376936;19;20102;-85
2022/12/22 11:56:07;;;;;;;77.38;8.90;;;15.60;80.40;;;;;;7376515;19;20034;-84
2022/12/22 11:58:52;;;;;;;70.10;9.65;;;15.60;80.20;;;;;;7372720;19;20512;-84
2022/12/22 12:01:36;;;;;;;95.95;20.42;;;15.70;80.30;;;;;;7373820;19;20090;-83
2022/12/22 12:04:22;;;;;;;76.75;9.98;;;15.60;80.40;;;;;;7407882;19;20015;-84
2022/12/22 12:07:13;;;;;;;77.38;12.75;;;15.70;80.40;;;;;;7388352;19;20014;-84
2022/12/22 12:09:50;;;;;;;79.07;14.80;;;15.60;80.20;;;;;;7380170;19;20044;-84
2022/12/22 12:12:28;;;;;;;85.28;13.15;;;15.70;80.20;;;;;;7375426;19;20359;-83
2022/12/22 12:15:09;;;;;;;65.20;9.57;;;15.70;80.10;;;;;;7375074;19;20090;-83
2022/12/22 12:17:49;;;;;;;87.90;10.90;;;15.60;80.00;;;;;;7376102;19;20090;-84
2022/12/22 12:20:47;;;;;;;69.40;10.50;;;15.70;80.10;;;;;;7371652;19;20102;-84
2022/12/22 12:23:27;;;;;;;66.20;8.70;;;15.70;80.00;;;;;;7371429;19;20110;-85
2022/12/22 12:26:02;;;;;;;77.40;11.65;;;15.70;79.60;;;;;;7372107;19;20015;-84
2022/12/22 12:28:47;;;;;;;71.32;10.65;;;15.60;80.10;;;;;;7372482;19;20366;-84
2022/12/22 12:31:19;;;;;;;69.32;11.45;;;15.60;80.40;;;;;;7372195;19;20089;-83
2022/12/22 12:33:51;;;;;;;76.65;10.55;;;15.60;80.70;;;;;;7392529;19;20434;-84
2022/12/22 12:36:26;;;;;;;74.75;9.85;;;15.60;80.80;;;;;;7372399;19;20086;-84
2022/12/22 12:39:03;;;;;;;71.93;10.57;;;15.60;80.80;;;;;;7371989;19;20023;-86
2022/12/22 12:41:38;;;;;;;74.00;9.25;;;15.70;80.50;;;;;;7371893;19;20035;-84
2022/12/22 12:44:12;;;;;;;86.13;9.50;;;15.70;80.40;;;;;;7373118;19;20039;-84
2022/12/22 12:46:58;;;;;;;81.07;10.00;;;15.70;80.40;;;;;;7372866;19;20039;-84
2022/12/22 12:50:09;;;;;;;71.40;9.35;;;15.80;80.70;;;;;;7375306;19;20025;-84
2022/12/22 12:53:16;;;;;;;79.72;9.95;;;15.60;80.70;;;;;;7376417;19;20031;-85
2022/12/22 12:56:10;;;;;;;75.63;9.55;;;15.60;81.30;;;;;;7373128;19;20026;-84
2022/12/22 12:58:54;;;;;;;72.13;8.52;;;15.60;81.80;;;;;;7384557;19;20055;-83
2022/12/22 13:01:58;;;;;;;62.60;8.48;;;15.50;82.30;;;;;;7388895;19;20011;-86
2022/12/22 13:04:57;;;;;;;72.72;9.13;;;15.50;83.00;;;;;;7383235;19;20046;-84
2022/12/22 13:07:56;;;;;;;78.47;9.77;;;15.50;83.00;;;;;;7376828;19;20018;-83
2022/12/22 13:10:26;;;;;;;75.68;8.90;;;15.50;83.20;;;;;;7375360;19;20022;-84
2022/12/22 13:12:58;;;;;;;72.47;9.15;;;15.50;83.20;;;;;;7398372;19;20082;-83
2022/12/22 13:15:31;;;;;;;;;;;15.60;83.10;;;;;;7378100;19;20018;-84
2022/12/22 13:18:02;;;;;;;76.28;9.05;;;15.60;83.50;;;;;;7377640;19;20276;-84
2022/12/22 13:20:33;;;;;;;74.53;9.00;;;15.60;83.30;;;;;;7380094;19;20068;-84
2022/12/22 13:23:05;;;;;;;85.55;10.30;;;15.50;83.50;;;;;;7373473;19;20021;-84
2022/12/22 13:25:43;;;;;;;78.60;9.35;;;15.60;83.60;;;;;;7376124;19;21435;-83
2022/12/22 13:28:19;;;;;;;85.70;10.38;;;15.50;83.60;;;;;;7395416;19;20333;-83
2022/12/22 13:30:49;;;;;;;73.30;10.50;;;15.40;83.90;;;;;;7372335;19;20027;-83
2022/12/22 13:33:22;;;;;;;68.55;9.20;;;15.40;84.00;;;;;;7370360;19;20033;-83
2022/12/22 13:35:52;;;;;;;85.55;8.65;;;15.40;85.00;;;;;;7373157;19;20032;-83
2022/12/22 13:38:31;;;;;;;77.72;12.35;;;15.30;84.50;;;;;;7378654;19;20106;-83
2022/12/22 13:41:04;;;;;;;87.20;11.05;;;15.20;84.80;;;;;;7378355;19;20679;-83
2022/12/22 13:43:36;;;;;;;69.13;9.63;;;15.20;85.00;;;;;;7379773;19;20102;-83
2022/12/22 13:46:05;;;;;;;80.40;9.45;;;15.20;85.00;;;;;;7400125;19;20065;-84
2022/12/22 13:48:39;;;;;;;73.20;9.13;;;15.30;85.00;;;;;;7381306;19;20018;-82
2022/12/22 13:51:13;;;;;;;74.30;9.75;;;15.30;85.10;;;;;;7380589;19;20047;-84
2022/12/22 13:53:45;;;;;;;62.10;8.60;;;15.30;85.00;;;;;;7379595;19;20081;-84
2022/12/22 13:56:15;;;;;;;;;;;15.20;85.40;;;;;;7385617;19;20058;-85
2022/12/22 13:58:48;;;;;;;80.88;9.45;;;15.20;86.00;;;;;;7383155;19;19930;-84
2022/12/22 14:01:20;;;;;;;65.57;8.40;;;15.20;85.50;;;;;;7375912;19;20101;-83
2022/12/22 14:03:52;;;;;;;66.22;8.75;;;15.20;85.60;;;;;;7403302;19;20414;-84
2022/12/22 14:06:22;;;;;;;83.35;9.85;;;15.10;86.10;;;;;;7378856;19;20039;-84
2022/12/22 14:08:51;;;;;;;65.90;8.13;;;15.20;86.10;;;;;;7377051;19;20074;-84
2022/12/22 14:11:20;;;;;;;76.93;10.25;;;15.20;86.10;;;;;;7375634;19;20406;-85
2022/12/22 14:13:51;;;;;;;65.88;9.55;;;15.20;86.20;;;;;;7381852;19;20031;-85
2022/12/22 14:16:20;;;;;;;69.47;7.85;;;15.20;86.30;;;;;;7380624;19;20445;-85
2022/12/22 14:18:50;;;;;;;56.17;8.40;;;15.30;86.30;;;;;;7400561;19;20446;-85
2022/12/22 14:21:19;;;;;;;72.70;8.38;;;15.30;86.20;;;;;;7379702;19;20015;-85
2022/12/22 14:23:49;;;;;;;74.70;7.80;;;15.30;86.30;;;;;;7375470;19;20010;-85
2022/12/22 14:26:23;;;;;;;69.85;9.27;;;15.40;86.30;;;;;;7379584;19;20102;-85
2022/12/22 14:28:58;;;;;;;70.80;8.68;;;15.40;86.30;;;;;;7391884;19;20058;-84
2022/12/22 14:31:27;;;;;;;66.63;8.93;;;15.30;86.30;;;;;;7388977;19;20019;-84
2022/12/22 14:34:03;;;;;;;65.97;7.70;;;15.40;86.30;;;;;;7406980;19;20036;-84
2022/12/22 14:36:40;;;;;;;80.13;8.25;;;15.40;86.30;;;;;;7377619;19;20011;-83
2022/12/22 14:39:11;;;;;;;60.28;7.18;;;15.30;86.40;;;;;;7376480;19;20010;-84
2022/12/22 14:41:50;;;;;;;62.38;7.63;;;15.30;86.40;;;;;;7375851;19;20018;-84
2022/12/22 14:44:24;;;;;;;59.22;8.10;;;15.40;86.60;;;;;;7377393;19;20018;-83
2022/12/22 14:47:14;;;;;;;54.50;7.18;;;15.40;86.50;;;;;;7377758;19;20081;-84
2022/12/22 14:49:49;;;;;;;58.35;7.97;;;15.40;86.70;;;;;;7381917;19;20113;-84
2022/12/22 14:52:22;;;;;;;50.50;7.75;;;15.40;86.50;;;;;;7376963;19;20097;-82
2022/12/22 14:54:54;;;;;;;58.92;7.65;;;15.40;86.70;;;;;;7399881;19;20029;-84
2022/12/22 14:57:31;;;;;;;41.22;6.47;;;15.40;86.60;;;;;;7371114;19;20015;-84
2022/12/22 15:00:06;;;;;;;45.15;7.28;;;15.40;86.60;;;;;;7376194;19;20042;-83
2022/12/22 15:02:40;;;;;;;39.53;6.03;;;15.40;86.70;;;;;;7376268;19;20098;-84
2022/12/22 15:05:17;;;;;;;47.33;6.95;;;15.40;86.50;;;;;;7377909;19;20156;-84
2022/12/22 15:07:49;;;;;;;40.92;6.28;;;15.40;86.60;;;;;;7375670;19;20010;-84
2022/12/22 15:10:20;;;;;;;37.45;6.53;;;15.50;86.70;;;;;;7373939;19;20121;-84
2022/12/22 15:12:50;;;;;;;42.07;6.50;;;15.50;86.70;;;;;;7395650;19;20347;-88
2022/12/22 15:15:23;;;;;;;39.70;6.57;;;15.50;86.70;;;;;;7379621;19;20362;-89
2022/12/22 15:17:54;;;;;;;45.50;6.65;;;15.50;86.70;;;;;;7374484;19;20082;-86
2022/12/22 15:20:25;;;;;;;41.45;5.80;;;15.50;86.50;;;;;;7385721;19;20010;-88
2022/12/22 15:22:54;;;;;;;51.03;6.63;;;15.40;86.60;;;;;;7386177;19;20014;-87
2022/12/22 15:25:25;;;;;;;37.50;5.85;;;15.50;87.50;;;;;;7394467;19;20014;-88
2022/12/22 15:27:54;;;;;;;36.15;6.13;;;15.40;86.60;;;;;;7407935;19;20014;-89
2022/12/22 15:30:25;;;;;;;32.35;6.18;;;15.40;86.70;;;;;;7377503;19;20026;-88
2022/12/22 15:32:54;;;;;;;48.58;6.18;;;15.40;86.70;;;;;;7375317;19;20648;-88
2022/12/22 15:35:30;;;;;;;35.05;5.90;;;15.50;86.90;;;;;;7378914;19;20395;-91
2022/12/22 15:37:59;;;;;;;39.53;5.53;;;15.40;86.90;;;;;;7383079;19;20069;-88
2022/12/22 15:40:29;;;;;;;45.25;6.43;;;15.40;86.70;;;;;;7381987;19;20051;-88
2022/12/22 15:42:58;;;;;;;26.45;5.43;;;15.50;86.90;;;;;;7403691;19;20077;-90
2022/12/22 15:45:31;;;;;;;39.95;5.70;;;15.50;86.90;;;;;;7381418;19;20011;-92
2022/12/22 15:48:00;;;;;;;46.67;6.65;;;15.50;86.90;;;;;;7380416;19;20031;-89
2022/12/22 15:50:33;;;;;;;38.42;5.63;;;15.50;86.90;;;;;;7385774;19;20027;-88
2022/12/22 15:53:02;;;;;;;28.00;5.25;;;15.50;86.90;;;;;;7375766;19;20022;-86
2022/12/22 15:55:33;;;;;;;39.72;5.35;;;15.50;87.10;;;;;;7382716;19;20014;-84
2022/12/22 15:58:02;;;;;;;30.65;5.05;;;15.50;87.10;;;;;;7412796;19;20015;-85
2022/12/22 16:00:33;;;;;;;35.33;4.95;;;15.50;87.20;;;;;;7392979;19;20031;-86
2022/12/22 16:03:02;;;;;;;37.90;5.60;;;15.40;87.20;;;;;;7381300;19;20111;-84
2022/12/22 16:05:30;;;;;;;35.03;6.13;;;15.50;87.30;;;;;;7378950;19;20039;-88
2022/12/22 16:08:02;;;;;;;34.85;5.25;;;15.50;87.30;;;;;;7378254;19;20019;-86
2022/12/22 16:10:33;;;;;;;37.13;5.72;;;15.40;87.20;;;;;;7386643;19;20379;-85
2022/12/22 16:13:04;;;;;;;32.67;5.50;;;15.50;87.50;;;;;;7405474;19;20026;-85
2022/12/22 16:15:36;;;;;;;25.52;4.57;;;15.50;87.50;;;;;;7382629;19;20022;-89
2022/12/22 16:18:05;;;;;;;23.52;5.05;;;15.50;88.30;;;;;;7383595;19;20022;-88
2022/12/22 16:20:38;;;;;;;26.73;6.75;;;15.50;87.50;;;;;;7387021;19;20043;-92
2022/12/22 16:25:44;;;;;;;21.75;4.10;;;15.60;87.60;;;;;;7362508;19;20010;-93
2022/12/22 16:28:17;;;;;;;15.95;3.33;;;15.50;87.50;;;;;;7408300;19;20025;-91
2022/12/22 16:30:49;;;;;;;17.10;4.30;;;15.50;87.60;;;;;;7389109;19;20028;-90
2022/12/22 16:33:18;;;;;;;24.10;4.50;;;15.40;87.80;;;;;;7386515;19;20343;-90
2022/12/22 16:35:47;;;;;;;20.20;5.13;;;15.40;87.90;;;;;;7381246;19;20024;-89
2022/12/22 16:38:16;;;;;;;16.48;3.13;;;15.50;88.80;;;;;;7381263;19;20014;-87
2022/12/22 16:40:48;;;;;;;18.38;3.58;;;15.30;88.70;;;;;;7401292;19;20010;-87
2022/12/22 16:43:23;;;;;;;17.77;3.10;;;15.20;89.50;;;;;;7408055;19;20021;-85
2022/12/22 16:45:54;;;;;;;13.50;3.38;;;15.20;89.30;;;;;;7428399;19;20083;-86
2022/12/22 16:48:29;;;;;;;16.65;2.90;;;15.30;89.30;;;;;;7404044;19;20112;-87
2022/12/22 16:50:58;;;;;;;13.15;3.42;;;15.20;89.50;;;;;;7400171;19;20031;-85
2022/12/22 16:53:27;;;;;;;9.32;2.90;;;15.30;90.10;;;;;;7383434;19;20023;-87
2022/12/22 16:55:56;;;;;;;10.65;2.88;;;15.40;90.00;;;;;;7368871;19;20090;-90
2022/12/22 16:58:25;;;;;;;14.75;3.20;;;15.50;89.20;;;;;;7375916;19;20014;-84
2022/12/22 17:00:56;;;;;;;14.45;3.35;;;15.50;89.10;;;;;;7428819;19;20015;-87
2022/12/22 17:03:28;;;;;;;16.95;3.60;;;15.30;89.50;;;;;;7408129;19;20014;-89